sensor_id;sensor_type;location;lat;lon;timestamp;pressure;altitude;pressure_sealevel;temperature;humidity
7433;BME280;32233;49.500;7.764;2023-04-01T00:01:10;96917.50;;;8.10;93.83
7433;BME280;32233;49.500;7.764;2023-04-01T00:03:38;96905.03;;;8.06;93.87
7433;BME280;32233;49.500;7.764;2023-04-01T00:06:05;96905.81;;;8.06;94.08
7433;BME280;32233;49.500;7.764;2023-04-01T00:08:32;96914.09;;;8.10;94.15
7433;BME280;32233;49.500;7.764;2023-04-01T00:10:58;96907.91;;;8.04;95.18
7433;BME280;32233;49.500;7.764;2023-04-01T00:13:25;96911.88;;;8.07;94.29
7433;BME280;32233;49.500;7.764;2023-04-01T00:15:54;96908.03;;;8.09;94.57
7433;BME280;32233;49.500;7.764;2023-04-01T00:18:22;96901.97;;;8.09;94.47
7433;BME280;32233;49.500;7.764;2023-04-01T00:20:51;96905.75;;;8.13;93.95
7433;BME280;32233;49.500;7.764;2023-04-01T00:23:19;96903.56;;;8.10;93.91
7433;BME280;32233;49.500;7.764;2023-04-01T00:25:46;96901.72;;;8.10;93.85
7433;BME280;32233;49.500;7.764;2023-04-01T00:28:16;96891.28;;;8.04;94.68
7433;BME280;32233;49.500;7.764;2023-04-01T00:30:43;96898.16;;;8.05;93.48
7433;BME280;32233;49.500;7.764;2023-04-01T00:33:10;96900.69;;;8.11;93.65
7433;BME280;32233;49.500;7.764;2023-04-01T00:35:39;96904.44;;;8.04;94.12
7433;BME280;32233;49.500;7.764;2023-04-01T00:38:05;96900.06;;;7.98;94.37
7433;BME280;32233;49.500;7.764;2023-04-01T00:40:38;96894.00;;;7.97;95.03
7433;BME280;32233;49.500;7.764;2023-04-01T00:43:12;96906.38;;;7.97;94.02
7433;BME280;32233;49.500;7.764;2023-04-01T00:45:41;96892.31;;;8.03;94.17
7433;BME280;32233;49.500;7.764;2023-04-01T00:48:17;96898.72;;;8.07;94.02
7433;BME280;32233;49.500;7.764;2023-04-01T00:51:06;96906.06;;;8.05;94.96
7433;BME280;32233;49.500;7.764;2023-04-01T00:53:36;96904.34;;;8.10;93.11
7433;BME280;32233;49.500;7.764;2023-04-01T00:56:10;96906.63;;;8.07;93.63
7433;BME280;32233;49.500;7.764;2023-04-01T00:58:41;96893.88;;;7.92;94.90
7433;BME280;32233;49.500;7.764;2023-04-01T01:01:09;96891.31;;;7.85;95.74
7433;BME280;32233;49.500;7.764;2023-04-01T01:03:36;96896.59;;;7.85;95.72
7433;BME280;32233;49.500;7.764;2023-04-01T01:11:35;96901.41;;;7.88;96.07
7433;BME280;32233;49.500;7.764;2023-04-01T01:14:24;96894.31;;;7.70;98.15
7433;BME280;32233;49.500;7.764;2023-04-01T01:16:58;96895.44;;;7.44;100.00
7433;BME280;32233;49.500;7.764;2023-04-01T01:19:45;96899.97;;;7.37;100.00
7433;BME280;32233;49.500;7.764;2023-04-01T01:25:13;96891.63;;;7.40;100.00
7433;BME280;32233;49.500;7.764;2023-04-01T01:27:48;96892.75;;;7.51;100.00
7433;BME280;32233;49.500;7.764;2023-04-01T01:30:28;96882.28;;;7.63;99.64
7433;BME280;32233;49.500;7.764;2023-04-01T01:33:09;96891.56;;;7.65;99.58
7433;BME280;32233;49.500;7.764;2023-04-01T01:35:56;96890.19;;;7.44;100.00
7433;BME280;32233;49.500;7.764;2023-04-01T01:38:28;96895.31;;;7.39;100.00
7433;BME280;32233;49.500;7.764;2023-04-01T01:41:01;96889.66;;;7.36;100.00
7433;BME280;32233;49.500;7.764;2023-04-01T01:43:33;96879.00;;;7.49;100.00
7433;BME280;32233;49.500;7.764;2023-04-01T01:46:05;96881.09;;;7.59;100.00
7433;BME280;32233;49.500;7.764;2023-04-01T01:48:34;96874.84;;;7.60;100.00
7433;BME280;32233;49.500;7.764;2023-04-01T01:51:04;96871.91;;;7.68;100.00
7433;BME280;32233;49.500;7.764;2023-04-01T01:53:31;96874.53;;;7.68;100.00
7433;BME280;32233;49.500;7.764;2023-04-01T01:55:59;96878.34;;;7.72;99.74
7433;BME280;32233;49.500;7.764;2023-04-01T01:58:49;96874.31;;;7.69;100.00
7433;BME280;32233;49.500;7.764;2023-04-01T02:01:28;96879.94;;;7.55;100.00
7433;BME280;32233;49.500;7.764;2023-04-01T02:04:03;96881.56;;;7.56;100.00
7433;BME280;32233;49.500;7.764;2023-04-01T02:06:34;96875.50;;;7.55;100.00
7433;BME280;32233;49.500;7.764;2023-04-01T02:09:04;96867.56;;;7.43;100.00
7433;BME280;32233;49.500;7.764;2023-04-01T02:11:41;96874.63;;;7.43;100.00
7433;BME280;32233;49.500;7.764;2023-04-01T02:14:17;96869.59;;;7.41;100.00
7433;BME280;32233;49.500;7.764;2023-04-01T02:16:59;96878.50;;;7.40;100.00
7433;BME280;32233;49.500;7.764;2023-04-01T02:19:31;96869.50;;;7.30;100.00
7433;BME280;32233;49.500;7.764;2023-04-01T02:22:02;96879.34;;;7.34;100.00
7433;BME280;32233;49.500;7.764;2023-04-01T02:24:31;96863.53;;;7.41;100.00
7433;BME280;32233;49.500;7.764;2023-04-01T02:27:00;96860.75;;;7.36;100.00
7433;BME280;32233;49.500;7.764;2023-04-01T02:29:28;96860.09;;;7.40;100.00
7433;BME280;32233;49.500;7.764;2023-04-01T02:31:55;96873.09;;;7.35;100.00
7433;BME280;32233;49.500;7.764;2023-04-01T02:34:23;96867.19;;;7.40;100.00
7433;BME280;32233;49.500;7.764;2023-04-01T02:36:51;96860.66;;;7.42;100.00
7433;BME280;32233;49.500;7.764;2023-04-01T02:39:18;96868.13;;;7.45;100.00
7433;BME280;32233;49.500;7.764;2023-04-01T02:41:45;96865.03;;;7.30;100.00
7433;BME280;32233;49.500;7.764;2023-04-01T02:44:13;96875.03;;;7.22;100.00
7433;BME280;32233;49.500;7.764;2023-04-01T02:46:41;96861.41;;;7.13;100.00
7433;BME280;32233;49.500;7.764;2023-04-01T02:49:08;96865.72;;;7.07;100.00
7433;BME280;32233;49.500;7.764;2023-04-01T02:51:35;96860.81;;;7.11;100.00
7433;BME280;32233;49.500;7.764;2023-04-01T02:54:01;96865.63;;;7.14;100.00
7433;BME280;32233;49.500;7.764;2023-04-01T02:56:28;96858.91;;;7.18;100.00
7433;BME280;32233;49.500;7.764;2023-04-01T02:58:55;96856.81;;;7.27;100.00
7433;BME280;32233;49.500;7.764;2023-04-01T03:01:22;96857.16;;;7.30;100.00
7433;BME280;32233;49.500;7.764;2023-04-01T03:03:48;96858.69;;;7.38;100.00
7433;BME280;32233;49.500;7.764;2023-04-01T03:06:16;96858.50;;;7.39;100.00
7433;BME280;32233;49.500;7.764;2023-04-01T03:08:43;96849.28;;;7.30;100.00
7433;BME280;32233;49.500;7.764;2023-04-01T03:11:11;96856.22;;;7.25;100.00
7433;BME280;32233;49.500;7.764;2023-04-01T03:13:38;96859.66;;;7.25;100.00
7433;BME280;32233;49.500;7.764;2023-04-01T03:16:06;96853.03;;;7.23;100.00
7433;BME280;32233;49.500;7.764;2023-04-01T03:18:34;96856.59;;;7.28;100.00
7433;BME280;32233;49.500;7.764;2023-04-01T03:21:21;96865.66;;;7.32;100.00
7433;BME280;32233;49.500;7.764;2023-04-01T03:23:48;96854.69;;;7.35;100.00
7433;BME280;32233;49.500;7.764;2023-04-01T03:26:16;96846.00;;;7.35;100.00
7433;BME280;32233;49.500;7.764;2023-04-01T03:28:43;96855.63;;;7.41;100.00
7433;BME280;32233;49.500;7.764;2023-04-01T03:31:10;96859.06;;;7.41;100.00
7433;BME280;32233;49.500;7.764;2023-04-01T03:33:43;96857.22;;;7.42;100.00
7433;BME280;32233;49.500;7.764;2023-04-01T03:36:09;96852.16;;;7.47;100.00
7433;BME280;32233;49.500;7.764;2023-04-01T03:38:40;96853.16;;;7.46;100.00
7433;BME280;32233;49.500;7.764;2023-04-01T03:41:07;96857.47;;;7.40;100.00
7433;BME280;32233;49.500;7.764;2023-04-01T03:43:33;96843.53;;;7.40;100.00
7433;BME280;32233;49.500;7.764;2023-04-01T03:46:00;96846.16;;;7.40;100.00
7433;BME280;32233;49.500;7.764;2023-04-01T03:48:27;96849.59;;;7.40;100.00
7433;BME280;32233;49.500;7.764;2023-04-01T03:50:53;96836.50;;;7.34;100.00
7433;BME280;32233;49.500;7.764;2023-04-01T03:53:21;96839.38;;;7.32;100.00
7433;BME280;32233;49.500;7.764;2023-04-01T03:55:47;96837.41;;;7.28;100.00
7433;BME280;32233;49.500;7.764;2023-04-01T03:58:14;96845.47;;;7.26;100.00
7433;BME280;32233;49.500;7.764;2023-04-01T04:00:41;96837.59;;;7.26;100.00
7433;BME280;32233;49.500;7.764;2023-04-01T04:03:09;96846.22;;;7.15;100.00
7433;BME280;32233;49.500;7.764;2023-04-01T04:05:35;96848.13;;;7.08;100.00
7433;BME280;32233;49.500;7.764;2023-04-01T04:08:02;96837.66;;;7.01;100.00
7433;BME280;32233;49.500;7.764;2023-04-01T04:10:30;96844.97;;;6.99;100.00
7433;BME280;32233;49.500;7.764;2023-04-01T04:12:57;96844.00;;;6.93;100.00
7433;BME280;32233;49.500;7.764;2023-04-01T04:15:27;96843.94;;;6.82;100.00
7433;BME280;32233;49.500;7.764;2023-04-01T04:17:54;96841.34;;;6.75;100.00
7433;BME280;32233;49.500;7.764;2023-04-01T04:20:22;96849.22;;;6.75;100.00
7433;BME280;32233;49.500;7.764;2023-04-01T04:22:48;96847.63;;;6.74;100.00
7433;BME280;32233;49.500;7.764;2023-04-01T04:25:15;96845.66;;;6.69;100.00
7433;BME280;32233;49.500;7.764;2023-04-01T04:27:41;96847.91;;;6.66;100.00
7433;BME280;32233;49.500;7.764;2023-04-01T04:30:11;96853.16;;;6.66;100.00
7433;BME280;32233;49.500;7.764;2023-04-01T04:32:37;96850.16;;;6.62;100.00
7433;BME280;32233;49.500;7.764;2023-04-01T04:35:04;96850.53;;;6.66;100.00
7433;BME280;32233;49.500;7.764;2023-04-01T04:37:33;96853.53;;;6.69;100.00
7433;BME280;32233;49.500;7.764;2023-04-01T04:39:59;96844.69;;;6.64;100.00
7433;BME280;32233;49.500;7.764;2023-04-01T04:42:27;96857.59;;;6.65;100.00
7433;BME280;32233;49.500;7.764;2023-04-01T04:44:59;96848.75;;;6.60;100.00
7433;BME280;32233;49.500;7.764;2023-04-01T04:47:26;96853.44;;;6.58;100.00
7433;BME280;32233;49.500;7.764;2023-04-01T04:49:53;96851.59;;;6.58;100.00
7433;BME280;32233;49.500;7.764;2023-04-01T04:52:19;96846.53;;;6.57;100.00
7433;BME280;32233;49.500;7.764;2023-04-01T04:54:46;96843.56;;;6.53;100.00
7433;BME280;32233;49.500;7.764;2023-04-01T04:57:13;96846.63;;;6.50;100.00
7433;BME280;32233;49.500;7.764;2023-04-01T04:59:46;96857.91;;;6.51;100.00
7433;BME280;32233;49.500;7.764;2023-04-01T05:02:23;96841.28;;;6.57;100.00
7433;BME280;32233;49.500;7.764;2023-04-01T05:04:50;96840.31;;;6.58;100.00
7433;BME280;32233;49.500;7.764;2023-04-01T05:07:17;96837.28;;;6.54;100.00
7433;BME280;32233;49.500;7.764;2023-04-01T05:09:43;96841.66;;;6.60;100.00
7433;BME280;32233;49.500;7.764;2023-04-01T05:12:12;96843.50;;;6.60;100.00
7433;BME280;32233;49.500;7.764;2023-04-01T05:14:54;96845.47;;;6.64;100.00
7433;BME280;32233;49.500;7.764;2023-04-01T05:17:21;96842.94;;;6.58;100.00
7433;BME280;32233;49.500;7.764;2023-04-01T05:19:48;96844.91;;;6.62;100.00
7433;BME280;32233;49.500;7.764;2023-04-01T05:22:14;96845.09;;;6.61;100.00
7433;BME280;32233;49.500;7.764;2023-04-01T05:24:42;96831.97;;;6.61;100.00
7433;BME280;32233;49.500;7.764;2023-04-01T05:27:11;96846.72;;;6.62;100.00
7433;BME280;32233;49.500;7.764;2023-04-01T05:29:39;96841.91;;;6.59;100.00
7433;BME280;32233;49.500;7.764;2023-04-01T05:32:11;96847.53;;;6.62;100.00
7433;BME280;32233;49.500;7.764;2023-04-01T05:34:38;96844.09;;;6.62;100.00
7433;BME280;32233;49.500;7.764;2023-04-01T05:37:05;96835.63;;;6.60;100.00
7433;BME280;32233;49.500;7.764;2023-04-01T05:39:37;96835.44;;;6.61;100.00
7433;BME280;32233;49.500;7.764;2023-04-01T05:42:07;96839.28;;;6.59;100.00
7433;BME280;32233;49.500;7.764;2023-04-01T05:44:35;96835.44;;;6.61;100.00
7433;BME280;32233;49.500;7.764;2023-04-01T05:47:03;96822.06;;;6.63;100.00
7433;BME280;32233;49.500;7.764;2023-04-01T05:49:30;96812.13;;;6.65;100.00
7433;BME280;32233;49.500;7.764;2023-04-01T05:51:57;96822.66;;;6.65;100.00
7433;BME280;32233;49.500;7.764;2023-04-01T05:54:24;96816.78;;;6.69;100.00
7433;BME280;32233;49.500;7.764;2023-04-01T05:56:51;96814.06;;;6.76;100.00
7433;BME280;32233;49.500;7.764;2023-04-01T05:59:18;96814.81;;;6.83;100.00
7433;BME280;32233;49.500;7.764;2023-04-01T06:01:45;96823.06;;;6.87;100.00
7433;BME280;32233;49.500;7.764;2023-04-01T06:04:14;96818.09;;;6.79;100.00
7433;BME280;32233;49.500;7.764;2023-04-01T06:06:43;96828.00;;;6.77;100.00
7433;BME280;32233;49.500;7.764;2023-04-01T06:09:17;96831.22;;;6.79;100.00
7433;BME280;32233;49.500;7.764;2023-04-01T06:23:00;96837.13;;;6.74;100.00
7433;BME280;32233;49.500;7.764;2023-04-01T06:25:39;96853.09;;;6.73;100.00
7433;BME280;32233;49.500;7.764;2023-04-01T06:30:43;96847.63;;;6.74;100.00
7433;BME280;32233;49.500;7.764;2023-04-01T06:39:21;96854.06;;;6.78;100.00
7433;BME280;32233;49.500;7.764;2023-04-01T06:47:52;96851.97;;;6.87;100.00
7433;BME280;32233;49.500;7.764;2023-04-01T06:50:50;96842.41;;;6.92;100.00
7433;BME280;32233;49.500;7.764;2023-04-01T06:56:36;96845.63;;;7.13;100.00
7433;BME280;32233;49.500;7.764;2023-04-01T06:59:31;96834.63;;;7.23;100.00
7433;BME280;32233;49.500;7.764;2023-04-01T07:02:38;96839.88;;;7.41;100.00
7433;BME280;32233;49.500;7.764;2023-04-01T07:05:08;96842.78;;;7.51;100.00
7433;BME280;32233;49.500;7.764;2023-04-01T07:07:47;96834.97;;;7.44;100.00
7433;BME280;32233;49.500;7.764;2023-04-01T07:10:57;96844.81;;;7.49;100.00
7433;BME280;32233;49.500;7.764;2023-04-01T07:13:52;96833.56;;;7.60;100.00
7433;BME280;32233;49.500;7.764;2023-04-01T07:16:32;96831.31;;;7.64;100.00
7433;BME280;32233;49.500;7.764;2023-04-01T07:19:12;96836.56;;;7.64;100.00
7433;BME280;32233;49.500;7.764;2023-04-01T07:22:36;96846.19;;;7.70;100.00
7433;BME280;32233;49.500;7.764;2023-04-01T07:25:29;96841.75;;;7.52;100.00
7433;BME280;32233;49.500;7.764;2023-04-01T07:28:19;96843.66;;;7.63;100.00
7433;BME280;32233;49.500;7.764;2023-04-01T07:31:18;96852.13;;;7.65;100.00
7433;BME280;32233;49.500;7.764;2023-04-01T07:37:04;96857.31;;;7.72;100.00
7433;BME280;32233;49.500;7.764;2023-04-01T07:39:43;96867.97;;;7.59;100.00
7433;BME280;32233;49.500;7.764;2023-04-01T07:42:54;96874.53;;;7.68;100.00
7433;BME280;32233;49.500;7.764;2023-04-01T07:56:26;96875.91;;;7.70;100.00
7433;BME280;32233;49.500;7.764;2023-04-01T08:02:30;96876.88;;;7.76;100.00
7433;BME280;32233;49.500;7.764;2023-04-01T08:08:01;96885.75;;;7.93;100.00
7433;BME280;32233;49.500;7.764;2023-04-01T08:14:13;96888.63;;;8.04;100.00
7433;BME280;32233;49.500;7.764;2023-04-01T08:17:17;96888.50;;;7.99;100.00
7433;BME280;32233;49.500;7.764;2023-04-01T08:22:43;96887.75;;;8.10;100.00
7433;BME280;32233;49.500;7.764;2023-04-01T08:25:25;96893.16;;;8.15;100.00
7433;BME280;32233;49.500;7.764;2023-04-01T08:27:59;96898.66;;;8.13;100.00
7433;BME280;32233;49.500;7.764;2023-04-01T08:30:41;96901.28;;;8.13;100.00
7433;BME280;32233;49.500;7.764;2023-04-01T08:33:17;96895.44;;;8.11;100.00
7433;BME280;32233;49.500;7.764;2023-04-01T08:38:43;96898.28;;;8.10;100.00
7433;BME280;32233;49.500;7.764;2023-04-01T08:47:15;96909.19;;;8.13;100.00
7433;BME280;32233;49.500;7.764;2023-04-01T08:50:00;96905.44;;;8.21;100.00
7433;BME280;32233;49.500;7.764;2023-04-01T08:53:06;96903.59;;;8.22;100.00
7433;BME280;32233;49.500;7.764;2023-04-01T09:04:26;96911.16;;;8.48;100.00
7433;BME280;32233;49.500;7.764;2023-04-01T09:13:10;96919.66;;;8.62;100.00
7433;BME280;32233;49.500;7.764;2023-04-01T09:21:37;96924.69;;;8.63;100.00
7433;BME280;32233;49.500;7.764;2023-04-01T09:27:02;96925.34;;;8.47;100.00
7433;BME280;32233;49.500;7.764;2023-04-01T09:29:48;96922.50;;;8.60;100.00
7433;BME280;32233;49.500;7.764;2023-04-01T09:35:47;96933.84;;;8.61;100.00
7433;BME280;32233;49.500;7.764;2023-04-01T09:38:30;96935.16;;;8.70;100.00
7433;BME280;32233;49.500;7.764;2023-04-01T09:47:19;96940.75;;;8.62;100.00
7433;BME280;32233;49.500;7.764;2023-04-01T09:53:24;96946.84;;;8.74;100.00
7433;BME280;32233;49.500;7.764;2023-04-01T09:58:53;96953.56;;;8.58;100.00
7433;BME280;32233;49.500;7.764;2023-04-01T10:05:09;96949.59;;;8.79;100.00
7433;BME280;32233;49.500;7.764;2023-04-01T10:13:19;96952.97;;;8.56;100.00
7433;BME280;32233;49.500;7.764;2023-04-01T10:16:19;96953.75;;;8.45;100.00
7433;BME280;32233;49.500;7.764;2023-04-01T10:30:19;96966.47;;;8.90;100.00
7433;BME280;32233;49.500;7.764;2023-04-01T10:33:19;96956.03;;;8.95;100.00
7433;BME280;32233;49.500;7.764;2023-04-01T10:53:49;96965.78;;;9.18;100.00
7433;BME280;32233;49.500;7.764;2023-04-01T11:06:16;96968.50;;;8.88;100.00
7433;BME280;32233;49.500;7.764;2023-04-01T11:09:27;96982.50;;;9.00;100.00
7433;BME280;32233;49.500;7.764;2023-04-01T11:15:21;96991.81;;;9.14;100.00
7433;BME280;32233;49.500;7.764;2023-04-01T11:21:17;96986.41;;;9.09;100.00
7433;BME280;32233;49.500;7.764;2023-04-01T11:27:04;96976.22;;;9.13;100.00
7433;BME280;32233;49.500;7.764;2023-04-01T11:32:51;96993.63;;;9.14;100.00
7433;BME280;32233;49.500;7.764;2023-04-01T11:35:30;96988.03;;;9.22;100.00
7433;BME280;32233;49.500;7.764;2023-04-01T11:38:26;97003.28;;;9.20;100.00
7433;BME280;32233;49.500;7.764;2023-04-01T11:41:34;96993.91;;;9.36;100.00
7433;BME280;32233;49.500;7.764;2023-04-01T11:44:26;97000.31;;;9.28;100.00
7433;BME280;32233;49.500;7.764;2023-04-01T11:50:18;97008.44;;;9.50;100.00
7433;BME280;32233;49.500;7.764;2023-04-01T11:55:38;97013.38;;;9.70;100.00
7433;BME280;32233;49.500;7.764;2023-04-01T11:58:36;97014.66;;;9.56;100.00
7433;BME280;32233;49.500;7.764;2023-04-01T12:01:25;97019.59;;;9.52;100.00
7433;BME280;32233;49.500;7.764;2023-04-01T12:09:28;97031.31;;;9.68;100.00
7433;BME280;32233;49.500;7.764;2023-04-01T12:17:39;97038.72;;;9.24;100.00
7433;BME280;32233;49.500;7.764;2023-04-01T12:20:30;97031.59;;;9.25;100.00
7433;BME280;32233;49.500;7.764;2023-04-01T12:31:02;97040.25;;;9.02;100.00
7433;BME280;32233;49.500;7.764;2023-04-01T12:33:45;97039.72;;;9.11;100.00
7433;BME280;32233;49.500;7.764;2023-04-01T12:36:23;97045.88;;;9.05;100.00
7433;BME280;32233;49.500;7.764;2023-04-01T12:39:21;97060.81;;;8.81;100.00
7433;BME280;32233;49.500;7.764;2023-04-01T12:44:37;97053.00;;;9.05;100.00
7433;BME280;32233;49.500;7.764;2023-04-01T12:50:23;97052.81;;;9.30;100.00
7433;BME280;32233;49.500;7.764;2023-04-01T12:59:46;97063.84;;;9.50;100.00
7433;BME280;32233;49.500;7.764;2023-04-01T13:02:40;97053.78;;;9.47;100.00
7433;BME280;32233;49.500;7.764;2023-04-01T13:05:51;97067.84;;;9.41;100.00
7433;BME280;32233;49.500;7.764;2023-04-01T13:11:48;97066.13;;;9.47;100.00
7433;BME280;32233;49.500;7.764;2023-04-01T13:17:23;97077.84;;;9.39;100.00
7433;BME280;32233;49.500;7.764;2023-04-01T13:20:06;97076.91;;;9.33;100.00
7433;BME280;32233;49.500;7.764;2023-04-01T13:23:00;97080.06;;;9.12;100.00
7433;BME280;32233;49.500;7.764;2023-04-01T13:25:37;97064.25;;;9.12;100.00
7433;BME280;32233;49.500;7.764;2023-04-01T13:28:22;97080.25;;;8.99;100.00
7433;BME280;32233;49.500;7.764;2023-04-01T13:55:49;97097.78;;;9.47;100.00
7433;BME280;32233;49.500;7.764;2023-04-01T13:58:28;97096.91;;;9.64;100.00
7433;BME280;32233;49.500;7.764;2023-04-01T14:12:06;97113.31;;;9.66;100.00
7433;BME280;32233;49.500;7.764;2023-04-01T14:23:23;97105.66;;;10.00;96.06
7433;BME280;32233;49.500;7.764;2023-04-01T14:35:16;97119.53;;;10.07;95.65
7433;BME280;32233;49.500;7.764;2023-04-01T14:49:04;97137.44;;;9.93;93.88
7433;BME280;32233;49.500;7.764;2023-04-01T14:51:40;97138.00;;;9.96;91.63
7433;BME280;32233;49.500;7.764;2023-04-01T14:56:40;97136.16;;;9.84;93.43
7433;BME280;32233;49.500;7.764;2023-04-01T15:02:14;97137.50;;;9.75;95.20
7433;BME280;32233;49.500;7.764;2023-04-01T15:08:03;97141.59;;;9.36;98.42
7433;BME280;32233;49.500;7.764;2023-04-01T15:13:58;97150.00;;;9.14;99.88
7433;BME280;32233;49.500;7.764;2023-04-01T15:16:38;97142.66;;;9.16;98.90
7433;BME280;32233;49.500;7.764;2023-04-01T15:22:27;97147.97;;;9.28;100.00
7433;BME280;32233;49.500;7.764;2023-04-01T15:27:51;97160.59;;;9.38;98.48
7433;BME280;32233;49.500;7.764;2023-04-01T15:30:32;97156.38;;;9.37;99.49
7433;BME280;32233;49.500;7.764;2023-04-01T15:33:17;97157.75;;;9.39;97.35
7433;BME280;32233;49.500;7.764;2023-04-01T15:41:09;97157.09;;;9.44;97.67
7433;BME280;32233;49.500;7.764;2023-04-01T15:43:48;97164.84;;;9.27;99.40
7433;BME280;32233;49.500;7.764;2023-04-01T15:46:24;97173.22;;;9.36;99.40
7433;BME280;32233;49.500;7.764;2023-04-01T15:57:36;97183.94;;;9.53;98.46
7433;BME280;32233;49.500;7.764;2023-04-01T16:05:40;97177.09;;;9.75;94.81
7433;BME280;32233;49.500;7.764;2023-04-01T16:11:08;97188.81;;;9.37;95.44
7433;BME280;32233;49.500;7.764;2023-04-01T16:16:26;97193.91;;;9.21;97.12
7433;BME280;32233;49.500;7.764;2023-04-01T16:24:32;97222.66;;;8.92;96.75
7433;BME280;32233;49.500;7.764;2023-04-01T16:27:06;97212.59;;;9.01;97.31
7433;BME280;32233;49.500;7.764;2023-04-01T16:29:56;97214.81;;;9.04;96.18
7433;BME280;32233;49.500;7.764;2023-04-01T16:32:53;97221.25;;;9.08;94.84
7433;BME280;32233;49.500;7.764;2023-04-01T16:41:00;97234.13;;;8.98;95.11
7433;BME280;32233;49.500;7.764;2023-04-01T16:46:26;97227.91;;;8.92;95.41
7433;BME280;32233;49.500;7.764;2023-04-01T16:54:47;97236.63;;;8.74;96.20
7433;BME280;32233;49.500;7.764;2023-04-01T16:57:25;97228.06;;;8.79;98.32
7433;BME280;32233;49.500;7.764;2023-04-01T17:00:14;97239.41;;;8.79;97.46
7433;BME280;32233;49.500;7.764;2023-04-01T17:02:50;97238.66;;;8.72;96.23
7433;BME280;32233;49.500;7.764;2023-04-01T17:05:20;97230.91;;;8.77;95.99
7433;BME280;32233;49.500;7.764;2023-04-01T17:11:19;97240.50;;;8.72;96.69
7433;BME280;32233;49.500;7.764;2023-04-01T17:22:25;97248.59;;;8.52;96.94
7433;BME280;32233;49.500;7.764;2023-04-01T17:33:10;97260.38;;;8.49;98.96
7433;BME280;32233;49.500;7.764;2023-04-01T17:50:09;97270.03;;;8.30;100.00
7433;BME280;32233;49.500;7.764;2023-04-01T17:52:52;97281.75;;;8.34;99.64
7433;BME280;32233;49.500;7.764;2023-04-01T17:55:46;97289.63;;;8.41;99.80
7433;BME280;32233;49.500;7.764;2023-04-01T17:58:22;97285.59;;;8.38;100.00
7433;BME280;32233;49.500;7.764;2023-04-01T18:06:33;97300.97;;;8.41;100.00
7433;BME280;32233;49.500;7.764;2023-04-01T18:20:02;97319.63;;;8.33;100.00
7433;BME280;32233;49.500;7.764;2023-04-01T18:22:46;97321.81;;;8.36;100.00
7433;BME280;32233;49.500;7.764;2023-04-01T18:25:32;97320.69;;;8.26;100.00
7433;BME280;32233;49.500;7.764;2023-04-01T18:28:22;97323.91;;;8.28;100.00
7433;BME280;32233;49.500;7.764;2023-04-01T18:39:02;97341.91;;;8.31;100.00
7433;BME280;32233;49.500;7.764;2023-04-01T18:41:36;97351.03;;;8.28;100.00
7433;BME280;32233;49.500;7.764;2023-04-01T18:52:17;97366.84;;;8.28;100.00
7433;BME280;32233;49.500;7.764;2023-04-01T18:57:48;97383.41;;;8.35;100.00
7433;BME280;32233;49.500;7.764;2023-04-01T19:00:22;97382.28;;;8.25;100.00
7433;BME280;32233;49.500;7.764;2023-04-01T19:02:58;97390.78;;;8.20;100.00
7433;BME280;32233;49.500;7.764;2023-04-01T19:05:31;97397.69;;;8.21;100.00
7433;BME280;32233;49.500;7.764;2023-04-01T19:08:19;97399.69;;;8.26;100.00
7433;BME280;32233;49.500;7.764;2023-04-01T19:11:08;97395.63;;;8.23;100.00
7433;BME280;32233;49.500;7.764;2023-04-01T19:13:55;97403.38;;;8.18;100.00
7433;BME280;32233;49.500;7.764;2023-04-01T19:24:37;97418.34;;;8.17;100.00
7433;BME280;32233;49.500;7.764;2023-04-01T19:29:42;97420.63;;;8.07;100.00
7433;BME280;32233;49.500;7.764;2023-04-01T19:48:40;97430.91;;;8.15;100.00
7433;BME280;32233;49.500;7.764;2023-04-01T19:51:25;97436.97;;;8.16;100.00
7433;BME280;32233;49.500;7.764;2023-04-01T19:54:01;97432.94;;;8.13;100.00
7433;BME280;32233;49.500;7.764;2023-04-01T19:56:43;97439.03;;;8.14;100.00
7433;BME280;32233;49.500;7.764;2023-04-01T19:59:31;97444.28;;;8.14;100.00
7433;BME280;32233;49.500;7.764;2023-04-01T20:04:38;97447.31;;;8.17;100.00
7433;BME280;32233;49.500;7.764;2023-04-01T20:07:09;97443.66;;;8.18;100.00
7433;BME280;32233;49.500;7.764;2023-04-01T20:10:06;97443.66;;;8.18;100.00
7433;BME280;32233;49.500;7.764;2023-04-01T20:15:34;97447.91;;;8.19;100.00
7433;BME280;32233;49.500;7.764;2023-04-01T20:18:05;97453.59;;;8.16;100.00
7433;BME280;32233;49.500;7.764;2023-04-01T20:20:39;97456.59;;;8.20;100.00
7433;BME280;32233;49.500;7.764;2023-04-01T20:23:26;97465.34;;;8.14;100.00
7433;BME280;32233;49.500;7.764;2023-04-01T20:26:04;97461.91;;;8.13;100.00
7433;BME280;32233;49.500;7.764;2023-04-01T20:28:42;97467.00;;;8.08;100.00
7433;BME280;32233;49.500;7.764;2023-04-01T20:34:04;97469.66;;;8.02;100.00
7433;BME280;32233;49.500;7.764;2023-04-01T20:42:27;97474.06;;;8.08;100.00
7433;BME280;32233;49.500;7.764;2023-04-01T20:48:24;97482.81;;;8.02;100.00
7433;BME280;32233;49.500;7.764;2023-04-01T20:50:59;97477.31;;;8.10;100.00
7433;BME280;32233;49.500;7.764;2023-04-01T20:53:43;97479.56;;;8.00;100.00
7433;BME280;32233;49.500;7.764;2023-04-01T21:27:20;97507.50;;;8.01;100.00
7433;BME280;32233;49.500;7.764;2023-04-01T21:36:01;97509.84;;;7.64;100.00
7433;BME280;32233;49.500;7.764;2023-04-01T21:38:44;97516.50;;;7.53;100.00
7433;BME280;32233;49.500;7.764;2023-04-01T21:44:49;97515.72;;;7.59;100.00
7433;BME280;32233;49.500;7.764;2023-04-01T21:58:51;97524.41;;;7.60;100.00
7433;BME280;32233;49.500;7.764;2023-04-01T22:02:14;97520.34;;;7.57;100.00
7433;BME280;32233;49.500;7.764;2023-04-01T22:04:44;97532.50;;;7.52;100.00
7433;BME280;32233;49.500;7.764;2023-04-01T22:07:19;97539.78;;;7.56;100.00
7433;BME280;32233;49.500;7.764;2023-04-01T22:10:15;97543.63;;;7.60;100.00
7433;BME280;32233;49.500;7.764;2023-04-01T22:13:08;97554.72;;;7.62;100.00
7433;BME280;32233;49.500;7.764;2023-04-01T22:21:30;97554.31;;;7.59;100.00
7433;BME280;32233;49.500;7.764;2023-04-01T22:27:33;97570.72;;;7.81;100.00
7433;BME280;32233;49.500;7.764;2023-04-01T22:30:41;97557.19;;;7.64;100.00
7433;BME280;32233;49.500;7.764;2023-04-01T22:32:50;97560.41;;;7.73;100.00
7433;BME280;32233;49.500;7.764;2023-04-01T22:35:40;97569.50;;;7.70;100.00
7433;BME280;32233;49.500;7.764;2023-04-01T22:38:25;97566.47;;;7.73;100.00
7433;BME280;32233;49.500;7.764;2023-04-01T22:43:43;97568.88;;;7.75;100.00